sensor_id;sensor_type;location;lat;lon;timestamp;pressure;altitude;pressure_sealevel;temperature;humidity
64362;BME280;50685;53.346;-6.296;2023-04-10T00:02:23;100385.47;;;10.04;80.65
64362;BME280;50685;53.346;-6.296;2023-04-10T00:04:49;100436.25;;;10.31;80.90
64362;BME280;50685;53.346;-6.296;2023-04-10T00:07:14;100410.97;;;10.10;81.14
64362;BME280;50685;53.346;-6.296;2023-04-10T00:09:41;100438.97;;;10.26;81.48
64362;BME280;50685;53.346;-6.296;2023-04-10T00:12:06;100422.47;;;10.09;81.79
64362;BME280;50685;53.346;-6.296;2023-04-10T00:14:35;100402.47;;;9.91;81.92
64362;BME280;50685;53.346;-6.296;2023-04-10T00:17:00;100394.44;;;9.97;82.71
64362;BME280;50685;53.346;-6.296;2023-04-10T00:19:26;100404.22;;;9.90;82.62
64362;BME280;50685;53.346;-6.296;2023-04-10T00:21:51;100429.56;;;10.08;82.87
64362;BME280;50685;53.346;-6.296;2023-04-10T00:24:17;100414.72;;;9.96;83.01
64362;BME280;50685;53.346;-6.296;2023-04-10T00:26:42;100403.41;;;9.88;83.59
64362;BME280;50685;53.346;-6.296;2023-04-10T00:29:08;100435.81;;;10.04;83.54
64362;BME280;50685;53.346;-6.296;2023-04-10T00:31:34;100429.69;;;10.01;83.25
64362;BME280;50685;53.346;-6.296;2023-04-10T00:33:59;100422.78;;;9.90;83.82
64362;BME280;50685;53.346;-6.296;2023-04-10T00:36:25;100443.97;;;9.92;83.98
64362;BME280;50685;53.346;-6.296;2023-04-10T00:38:52;100394.00;;;9.69;83.92
64362;BME280;50685;53.346;-6.296;2023-04-10T00:41:17;100440.50;;;9.87;83.94
64362;BME280;50685;53.346;-6.296;2023-04-10T00:43:44;100396.69;;;9.65;83.77
64362;BME280;50685;53.346;-6.296;2023-04-10T00:46:10;100362.56;;;9.47;84.06
64362;BME280;50685;53.346;-6.296;2023-04-10T00:48:36;100386.16;;;9.61;84.03
64362;BME280;50685;53.346;-6.296;2023-04-10T00:51:03;100416.78;;;9.79;83.59
64362;BME280;50685;53.346;-6.296;2023-04-10T00:53:28;100376.69;;;9.46;83.54
64362;BME280;50685;53.346;-6.296;2023-04-10T00:55:55;100371.38;;;9.46;82.88
64362;BME280;50685;53.346;-6.296;2023-04-10T00:58:23;100369.63;;;9.45;82.79
64362;BME280;50685;53.346;-6.296;2023-04-10T01:00:50;100382.75;;;9.54;82.61
64362;BME280;50685;53.346;-6.296;2023-04-10T01:03:16;100386.28;;;9.53;82.56
64362;BME280;50685;53.346;-6.296;2023-04-10T01:05:52;100391.34;;;9.67;81.44
64362;BME280;50685;53.346;-6.296;2023-04-10T01:11:29;100410.53;;;9.83;81.35
64362;BME280;50685;53.346;-6.296;2023-04-10T01:14:11;100371.16;;;9.61;81.59
64362;BME280;50685;53.346;-6.296;2023-04-10T01:16:50;100367.63;;;9.62;81.39
64362;BME280;50685;53.346;-6.296;2023-04-10T01:19:37;100352.69;;;9.57;81.78
64362;BME280;50685;53.346;-6.296;2023-04-10T01:22:08;100342.88;;;9.63;81.83
64362;BME280;50685;53.346;-6.296;2023-04-10T01:24:54;100386.66;;;9.86;82.50
64362;BME280;50685;53.346;-6.296;2023-04-10T01:30:18;100360.41;;;9.72;82.66
64362;BME280;50685;53.346;-6.296;2023-04-10T01:32:47;100332.22;;;9.70;83.17
64362;BME280;50685;53.346;-6.296;2023-04-10T01:35:14;100383.88;;;9.95;83.19
64362;BME280;50685;53.346;-6.296;2023-04-10T01:37:41;100342.69;;;9.76;82.88
64362;BME280;50685;53.346;-6.296;2023-04-10T01:40:10;100364.59;;;9.86;83.08
64362;BME280;50685;53.346;-6.296;2023-04-10T01:42:45;100375.81;;;10.00;83.22
64362;BME280;50685;53.346;-6.296;2023-04-10T01:45:16;100306.78;;;9.58;83.18
64362;BME280;50685;53.346;-6.296;2023-04-10T01:47:42;100366.06;;;10.02;82.87
64362;BME280;50685;53.346;-6.296;2023-04-10T01:50:09;100374.88;;;10.03;82.04
64362;BME280;50685;53.346;-6.296;2023-04-10T01:52:36;100329.34;;;9.80;81.94
64362;BME280;50685;53.346;-6.296;2023-04-10T01:55:05;100371.31;;;10.07;81.45
64362;BME280;50685;53.346;-6.296;2023-04-10T01:57:32;100325.81;;;9.81;81.65
64362;BME280;50685;53.346;-6.296;2023-04-10T02:00:00;100314.44;;;9.76;81.63
64362;BME280;50685;53.346;-6.296;2023-04-10T02:02:30;100353.69;;;10.04;81.35
64362;BME280;50685;53.346;-6.296;2023-04-10T02:04:55;100319.59;;;9.84;81.54
64362;BME280;50685;53.346;-6.296;2023-04-10T02:12:54;100356.44;;;9.98;80.98
64362;BME280;50685;53.346;-6.296;2023-04-10T02:15:25;100316.25;;;9.73;81.06
64362;BME280;50685;53.346;-6.296;2023-04-10T02:17:51;100302.28;;;9.63;81.41
64362;BME280;50685;53.346;-6.296;2023-04-10T02:20:19;100344.31;;;9.83;81.37
64362;BME280;50685;53.346;-6.296;2023-04-10T02:22:48;100307.63;;;9.61;81.38
64362;BME280;50685;53.346;-6.296;2023-04-10T02:25:15;100306.63;;;9.67;81.34
64362;BME280;50685;53.346;-6.296;2023-04-10T02:27:40;100273.34;;;9.54;81.22
64362;BME280;50685;53.346;-6.296;2023-04-10T02:30:07;100322.22;;;9.84;81.56
64362;BME280;50685;53.346;-6.296;2023-04-10T02:32:32;100334.44;;;9.93;81.48
64362;BME280;50685;53.346;-6.296;2023-04-10T02:34:58;100288.91;;;9.71;81.56
64362;BME280;50685;53.346;-6.296;2023-04-10T02:37:25;100283.78;;;9.61;81.38
64362;BME280;50685;53.346;-6.296;2023-04-10T02:39:51;100299.63;;;9.64;81.74
64362;BME280;50685;53.346;-6.296;2023-04-10T02:42:18;100355.63;;;9.93;82.10
64362;BME280;50685;53.346;-6.296;2023-04-10T02:44:44;100319.78;;;9.72;81.58
64362;BME280;50685;53.346;-6.296;2023-04-10T02:47:09;100310.91;;;9.74;81.70
64362;BME280;50685;53.346;-6.296;2023-04-10T02:49:35;100341.44;;;9.97;81.33
64362;BME280;50685;53.346;-6.296;2023-04-10T02:52:01;100332.72;;;9.90;81.31
64362;BME280;50685;53.346;-6.296;2023-04-10T02:54:26;100296.81;;;9.74;81.64
64362;BME280;50685;53.346;-6.296;2023-04-10T02:56:52;100333.47;;;9.99;81.54
64362;BME280;50685;53.346;-6.296;2023-04-10T02:59:21;100271.41;;;9.62;81.67
64362;BME280;50685;53.346;-6.296;2023-04-10T03:01:48;100285.34;;;9.75;81.49
64362;BME280;50685;53.346;-6.296;2023-04-10T03:04:14;100287.22;;;9.67;81.54
64362;BME280;50685;53.346;-6.296;2023-04-10T03:06:39;100288.00;;;9.72;82.01
64362;BME280;50685;53.346;-6.296;2023-04-10T03:09:05;100263.53;;;9.57;82.17
64362;BME280;50685;53.346;-6.296;2023-04-10T03:11:30;100288.06;;;9.70;81.79
64362;BME280;50685;53.346;-6.296;2023-04-10T03:13:56;100281.06;;;9.66;82.08
64362;BME280;50685;53.346;-6.296;2023-04-10T03:16:24;100283.63;;;9.72;81.88
64362;BME280;50685;53.346;-6.296;2023-04-10T03:18:51;100298.56;;;9.75;81.95
64362;BME280;50685;53.346;-6.296;2023-04-10T03:21:17;100266.94;;;9.65;81.81
64362;BME280;50685;53.346;-6.296;2023-04-10T03:23:42;100307.94;;;9.93;82.26
64362;BME280;50685;53.346;-6.296;2023-04-10T03:26:08;100319.47;;;9.90;82.43
64362;BME280;50685;53.346;-6.296;2023-04-10T03:28:34;100323.94;;;9.87;82.79
64362;BME280;50685;53.346;-6.296;2023-04-10T03:31:01;100288.94;;;9.69;82.59
64362;BME280;50685;53.346;-6.296;2023-04-10T03:33:29;100270.69;;;9.54;82.84
64362;BME280;50685;53.346;-6.296;2023-04-10T03:35:58;100302.28;;;9.63;82.99
64362;BME280;50685;53.346;-6.296;2023-04-10T03:38:23;100259.50;;;9.36;83.05
64362;BME280;50685;53.346;-6.296;2023-04-10T03:40:51;100307.78;;;9.51;83.20
64362;BME280;50685;53.346;-6.296;2023-04-10T03:43:18;100286.75;;;9.41;83.28
64362;BME280;50685;53.346;-6.296;2023-04-10T03:45:45;100277.25;;;9.29;83.47
64362;BME280;50685;53.346;-6.296;2023-04-10T03:48:11;100253.69;;;9.14;83.45
64362;BME280;50685;53.346;-6.296;2023-04-10T03:50:37;100288.69;;;9.31;83.49
64362;BME280;50685;53.346;-6.296;2023-04-10T03:53:02;100247.72;;;8.99;83.28
64362;BME280;50685;53.346;-6.296;2023-04-10T03:55:28;100301.84;;;9.36;83.38
64362;BME280;50685;53.346;-6.296;2023-04-10T03:57:56;100263.50;;;9.06;83.16
64362;BME280;50685;53.346;-6.296;2023-04-10T04:00:23;100275.75;;;9.13;83.69
64362;BME280;50685;53.346;-6.296;2023-04-10T04:02:48;100247.84;;;8.92;83.59
64362;BME280;50685;53.346;-6.296;2023-04-10T04:05:14;100304.66;;;9.25;83.52
64362;BME280;50685;53.346;-6.296;2023-04-10T04:07:40;100252.19;;;8.97;83.62
64362;BME280;50685;53.346;-6.296;2023-04-10T04:10:06;100219.75;;;8.84;83.67
64362;BME280;50685;53.346;-6.296;2023-04-10T04:12:32;100297.72;;;9.18;83.77
64362;BME280;50685;53.346;-6.296;2023-04-10T04:14:57;100287.16;;;9.16;83.79
64362;BME280;50685;53.346;-6.296;2023-04-10T04:17:23;100288.97;;;9.13;83.69
64362;BME280;50685;53.346;-6.296;2023-04-10T04:19:48;100284.59;;;9.10;83.87
64362;BME280;50685;53.346;-6.296;2023-04-10T04:22:14;100228.72;;;8.74;83.55
64362;BME280;50685;53.346;-6.296;2023-04-10T04:24:40;100252.38;;;8.85;83.86
64362;BME280;50685;53.346;-6.296;2023-04-10T04:27:06;100229.69;;;8.67;84.17
64362;BME280;50685;53.346;-6.296;2023-04-10T04:29:31;100243.66;;;8.77;84.32
64362;BME280;50685;53.346;-6.296;2023-04-10T04:31:57;100242.00;;;8.70;84.21
64362;BME280;50685;53.346;-6.296;2023-04-10T04:34:22;100262.19;;;8.75;84.25
64362;BME280;50685;53.346;-6.296;2023-04-10T04:36:48;100278.84;;;8.82;84.23
64362;BME280;50685;53.346;-6.296;2023-04-10T04:39:13;100282.25;;;8.90;84.53
64362;BME280;50685;53.346;-6.296;2023-04-10T04:41:39;100233.41;;;8.54;84.60
64362;BME280;50685;53.346;-6.296;2023-04-10T04:44:08;100287.63;;;8.84;84.48
64362;BME280;50685;53.346;-6.296;2023-04-10T04:46:33;100277.94;;;8.83;84.98
64362;BME280;50685;53.346;-6.296;2023-04-10T04:48:59;100278.91;;;8.79;84.84
64362;BME280;50685;53.346;-6.296;2023-04-10T04:51:25;100220.31;;;8.41;84.84
64362;BME280;50685;53.346;-6.296;2023-04-10T04:53:51;100228.06;;;8.58;84.69
64362;BME280;50685;53.346;-6.296;2023-04-10T04:56:17;100242.06;;;8.66;84.74
64362;BME280;50685;53.346;-6.296;2023-04-10T04:58:42;100236.88;;;8.57;84.72
64362;BME280;50685;53.346;-6.296;2023-04-10T05:01:08;100213.28;;;8.40;84.80
64362;BME280;50685;53.346;-6.296;2023-04-10T05:03:34;100214.19;;;8.39;85.17
64362;BME280;50685;53.346;-6.296;2023-04-10T05:05:59;100263.16;;;8.70;84.82
64362;BME280;50685;53.346;-6.296;2023-04-10T05:08:24;100252.56;;;8.70;84.79
64362;BME280;50685;53.346;-6.296;2023-04-10T05:10:52;100217.56;;;8.52;84.71
64362;BME280;50685;53.346;-6.296;2023-04-10T05:13:18;100241.13;;;8.67;84.86
64362;BME280;50685;53.346;-6.296;2023-04-10T05:15:43;100175.53;;;8.30;84.53
64362;BME280;50685;53.346;-6.296;2023-04-10T05:18:09;100202.69;;;8.43;84.66
64362;BME280;50685;53.346;-6.296;2023-04-10T05:20:38;100197.44;;;8.40;84.50
64362;BME280;50685;53.346;-6.296;2023-04-10T05:23:04;100211.50;;;8.42;84.59
64362;BME280;50685;53.346;-6.296;2023-04-10T05:25:30;100200.09;;;8.39;84.53
64362;BME280;50685;53.346;-6.296;2023-04-10T05:27:55;100255.34;;;8.60;84.51
64362;BME280;50685;53.346;-6.296;2023-04-10T05:30:21;100250.94;;;8.61;84.39
64362;BME280;50685;53.346;-6.296;2023-04-10T05:32:46;100252.63;;;8.65;84.33
64362;BME280;50685;53.346;-6.296;2023-04-10T05:35:12;100252.59;;;8.68;83.98
64362;BME280;50685;53.346;-6.296;2023-04-10T05:37:37;100230.75;;;8.57;83.86
64362;BME280;50685;53.346;-6.296;2023-04-10T05:40:06;100256.91;;;8.74;83.84
64362;BME280;50685;53.346;-6.296;2023-04-10T05:42:32;100223.56;;;8.63;83.63
64362;BME280;50685;53.346;-6.296;2023-04-10T05:44:57;100205.22;;;8.52;83.74
64362;BME280;50685;53.346;-6.296;2023-04-10T05:47:23;100199.13;;;8.46;83.57
64362;BME280;50685;53.346;-6.296;2023-04-10T05:49:48;100200.81;;;8.51;83.54
64362;BME280;50685;53.346;-6.296;2023-04-10T05:52:14;100256.78;;;8.83;83.52
64362;BME280;50685;53.346;-6.296;2023-04-10T05:54:39;100203.53;;;8.48;83.57
64362;BME280;50685;53.346;-6.296;2023-04-10T05:57:05;100253.28;;;8.81;83.51
64362;BME280;50685;53.346;-6.296;2023-04-10T05:59:30;100221.91;;;8.56;83.48
64362;BME280;50685;53.346;-6.296;2023-04-10T06:01:56;100249.03;;;8.71;83.61
64362;BME280;50685;53.346;-6.296;2023-04-10T06:04:22;100202.66;;;8.45;83.46
64362;BME280;50685;53.346;-6.296;2023-04-10T06:06:48;100228.81;;;8.68;83.38
64362;BME280;50685;53.346;-6.296;2023-04-10T06:09:14;100275.28;;;8.86;83.28
64362;BME280;50685;53.346;-6.296;2023-04-10T06:11:39;100262.81;;;8.93;83.32
64362;BME280;50685;53.346;-6.296;2023-04-10T06:14:05;100222.50;;;8.77;83.06
64362;BME280;50685;53.346;-6.296;2023-04-10T06:16:30;100220.75;;;8.76;82.72
64362;BME280;50685;53.346;-6.296;2023-04-10T06:18:56;100244.19;;;9.02;82.65
64362;BME280;50685;53.346;-6.296;2023-04-10T06:21:22;100207.41;;;8.83;82.42
64362;BME280;50685;53.346;-6.296;2023-04-10T06:23:50;100250.88;;;9.25;82.16
64362;BME280;50685;53.346;-6.296;2023-04-10T06:26:15;100201.13;;;8.92;81.36
64362;BME280;50685;53.346;-6.296;2023-04-10T06:28:41;100193.09;;;8.97;81.85
64362;BME280;50685;53.346;-6.296;2023-04-10T06:31:06;100257.88;;;9.27;81.28
64362;BME280;50685;53.346;-6.296;2023-04-10T06:33:32;100261.28;;;9.36;81.34
64362;BME280;50685;53.346;-6.296;2023-04-10T06:36:00;100251.63;;;9.31;81.00
64362;BME280;50685;53.346;-6.296;2023-04-10T06:38:26;100264.78;;;9.36;80.76
64362;BME280;50685;53.346;-6.296;2023-04-10T06:40:52;100229.03;;;9.12;80.74
64362;BME280;50685;53.346;-6.296;2023-04-10T06:43:17;100210.72;;;8.98;81.03
64362;BME280;50685;53.346;-6.296;2023-04-10T06:45:44;100270.03;;;9.39;81.29
64362;BME280;50685;53.346;-6.296;2023-04-10T06:48:09;100231.66;;;9.13;81.14
64362;BME280;50685;53.346;-6.296;2023-04-10T06:50:35;100224.75;;;9.05;81.29
64362;BME280;50685;53.346;-6.296;2023-04-10T06:53:00;100264.25;;;9.14;82.01
64362;BME280;50685;53.346;-6.296;2023-04-10T06:55:26;100231.06;;;8.94;82.36
64362;BME280;50685;53.346;-6.296;2023-04-10T06:57:52;100232.88;;;8.92;82.39
64362;BME280;50685;53.346;-6.296;2023-04-10T07:00:18;100273.19;;;9.07;82.49
64362;BME280;50685;53.346;-6.296;2023-04-10T07:02:44;100210.41;;;8.60;81.56
64362;BME280;50685;53.346;-6.296;2023-04-10T07:05:10;100221.97;;;8.53;82.50
64362;BME280;50685;53.346;-6.296;2023-04-10T07:07:36;100235.09;;;8.59;81.67
64362;BME280;50685;53.346;-6.296;2023-04-10T07:10:01;100220.25;;;8.44;82.54
64362;BME280;50685;53.346;-6.296;2023-04-10T07:12:28;100250.97;;;8.58;82.62
64362;BME280;50685;53.346;-6.296;2023-04-10T07:14:53;100231.88;;;8.32;82.56
64362;BME280;50685;53.346;-6.296;2023-04-10T07:17:20;100241.53;;;8.35;83.17
64362;BME280;50685;53.346;-6.296;2023-04-10T07:19:46;100277.47;;;8.53;83.50
64362;BME280;50685;53.346;-6.296;2023-04-10T07:22:11;100253.03;;;8.32;83.56
64362;BME280;50685;53.346;-6.296;2023-04-10T07:24:37;100249.56;;;8.27;84.19
64362;BME280;50685;53.346;-6.296;2023-04-10T07:27:02;100255.81;;;8.18;84.39
64362;BME280;50685;53.346;-6.296;2023-04-10T07:29:29;100241.06;;;8.02;84.13
64362;BME280;50685;53.346;-6.296;2023-04-10T07:31:55;100283.06;;;8.22;84.67
64362;BME280;50685;53.346;-6.296;2023-04-10T07:34:20;100255.16;;;7.99;84.79
64362;BME280;50685;53.346;-6.296;2023-04-10T07:36:46;100256.94;;;7.97;85.34
64362;BME280;50685;53.346;-6.296;2023-04-10T07:39:11;100277.97;;;8.07;86.02
64362;BME280;50685;53.346;-6.296;2023-04-10T07:41:37;100268.34;;;8.01;85.73
64362;BME280;50685;53.346;-6.296;2023-04-10T07:44:02;100251.81;;;7.83;85.79
64362;BME280;50685;53.346;-6.296;2023-04-10T07:46:28;100253.63;;;7.80;86.06
64362;BME280;50685;53.346;-6.296;2023-04-10T07:48:53;100246.69;;;7.69;86.62
64362;BME280;50685;53.346;-6.296;2023-04-10T07:51:22;100244.16;;;7.55;86.33
64362;BME280;50685;53.346;-6.296;2023-04-10T07:53:50;100261.59;;;7.74;87.09
64362;BME280;50685;53.346;-6.296;2023-04-10T07:56:19;100240.63;;;7.60;87.69
64362;BME280;50685;53.346;-6.296;2023-04-10T07:58:46;100266.06;;;7.68;88.14
64362;BME280;50685;53.346;-6.296;2023-04-10T08:01:11;100270.44;;;7.69;88.71
64362;BME280;50685;53.346;-6.296;2023-04-10T08:03:41;100238.97;;;7.48;88.42
64362;BME280;50685;53.346;-6.296;2023-04-10T08:06:08;100232.81;;;7.49;88.99
64362;BME280;50685;53.346;-6.296;2023-04-10T08:08:40;100264.28;;;7.67;88.82
64362;BME280;50685;53.346;-6.296;2023-04-10T08:11:21;100255.56;;;7.62;89.44
64362;BME280;50685;53.346;-6.296;2023-04-10T08:13:48;100241.53;;;7.57;89.49
64362;BME280;50685;53.346;-6.296;2023-04-10T08:16:13;100222.19;;;7.52;89.67
64362;BME280;50685;53.346;-6.296;2023-04-10T08:18:39;100258.94;;;7.74;90.15
64362;BME280;50685;53.346;-6.296;2023-04-10T08:21:04;100232.63;;;7.67;89.38
64362;BME280;50685;53.346;-6.296;2023-04-10T08:23:30;100226.53;;;7.62;89.93
64362;BME280;50685;53.346;-6.296;2023-04-10T08:25:56;100231.78;;;7.64;90.01
64362;BME280;50685;53.346;-6.296;2023-04-10T08:28:21;100257.16;;;7.77;90.37
64362;BME280;50685;53.346;-6.296;2023-04-10T08:30:47;100229.16;;;7.59;90.14
64362;BME280;50685;53.346;-6.296;2023-04-10T08:33:12;100232.69;;;7.61;90.15
64362;BME280;50685;53.346;-6.296;2023-04-10T08:35:38;100220.47;;;7.52;90.08
64362;BME280;50685;53.346;-6.296;2023-04-10T08:38:03;100212.53;;;7.51;89.97
64362;BME280;50685;53.346;-6.296;2023-04-10T08:40:29;100225.66;;;7.60;89.54
64362;BME280;50685;53.346;-6.296;2023-04-10T08:42:54;100253.66;;;7.74;88.95
64362;BME280;50685;53.346;-6.296;2023-04-10T08:45:20;100214.25;;;7.56;89.17
64362;BME280;50685;53.346;-6.296;2023-04-10T08:47:47;100202.75;;;7.61;89.53
64362;BME280;50685;53.346;-6.296;2023-04-10T08:50:16;100225.50;;;7.74;88.63
64362;BME280;50685;53.346;-6.296;2023-04-10T08:52:45;100247.34;;;7.88;87.94
64362;BME280;50685;53.346;-6.296;2023-04-10T08:55:12;100251.72;;;7.91;87.88
64362;BME280;50685;53.346;-6.296;2023-04-10T08:57:39;100210.50;;;7.78;87.77
64362;BME280;50685;53.346;-6.296;2023-04-10T09:00:05;100197.28;;;7.81;87.49
64362;BME280;50685;53.346;-6.296;2023-04-10T09:02:31;100235.66;;;8.13;87.55
64362;BME280;50685;53.346;-6.296;2023-04-10T09:04:58;100211.97;;;8.05;87.17
64362;BME280;50685;53.346;-6.296;2023-04-10T09:07:27;100201.38;;;8.07;86.66
64362;BME280;50685;53.346;-6.296;2023-04-10T09:09:52;100232.66;;;8.39;86.19
64362;BME280;50685;53.346;-6.296;2023-04-10T09:12:18;100199.03;;;8.57;85.21
64362;BME280;50685;53.346;-6.296;2023-04-10T09:14:43;100213.53;;;9.42;83.98
64362;BME280;50685;53.346;-6.296;2023-04-10T09:17:19;100211.44;;;10.06;81.58
64362;BME280;50685;53.346;-6.296;2023-04-10T09:19:55;100181.91;;;10.25;76.92
64362;BME280;50685;53.346;-6.296;2023-04-10T09:22:31;100184.31;;;10.39;76.52
64362;BME280;50685;53.346;-6.296;2023-04-10T09:24:59;100192.41;;;10.29;77.35
64362;BME280;50685;53.346;-6.296;2023-04-10T09:27:33;100188.09;;;10.25;76.53
64362;BME280;50685;53.346;-6.296;2023-04-10T09:30:03;100181.69;;;10.36;76.41
64362;BME280;50685;53.346;-6.296;2023-04-10T09:35:04;100168.56;;;10.29;75.12
64362;BME280;50685;53.346;-6.296;2023-04-10T09:37:31;100197.63;;;10.34;74.60
64362;BME280;50685;53.346;-6.296;2023-04-10T09:39:57;100195.97;;;10.28;75.70
64362;BME280;50685;53.346;-6.296;2023-04-10T09:42:35;100186.81;;;10.45;75.19
64362;BME280;50685;53.346;-6.296;2023-04-10T09:45:02;100172.94;;;10.73;75.53
64362;BME280;50685;53.346;-6.296;2023-04-10T09:47:28;100161.91;;;11.26;75.67
64362;BME280;50685;53.346;-6.296;2023-04-10T09:49:56;100157.06;;;11.75;74.31
64362;BME280;50685;53.346;-6.296;2023-04-10T09:52:35;100168.59;;;12.07;69.91
64362;BME280;50685;53.346;-6.296;2023-04-10T09:55:04;100165.56;;;12.19;70.36
64362;BME280;50685;53.346;-6.296;2023-04-10T09:57:32;100169.16;;;12.47;69.22
64362;BME280;50685;53.346;-6.296;2023-04-10T10:00:00;100152.88;;;12.28;67.33
64362;BME280;50685;53.346;-6.296;2023-04-10T10:02:29;100153.19;;;12.18;66.65
64362;BME280;50685;53.346;-6.296;2023-04-10T10:04:56;100148.34;;;12.01;66.20
64362;BME280;50685;53.346;-6.296;2023-04-10T10:07:25;100126.31;;;11.98;67.56
64362;BME280;50685;53.346;-6.296;2023-04-10T10:09:53;100150.88;;;12.06;67.36
64362;BME280;50685;53.346;-6.296;2023-04-10T10:12:26;100165.47;;;11.91;67.95
64362;BME280;50685;53.346;-6.296;2023-04-10T10:15:08;100192.00;;;11.60;68.48
64362;BME280;50685;53.346;-6.296;2023-04-10T10:17:45;100164.81;;;11.15;70.32
64362;BME280;50685;53.346;-6.296;2023-04-10T10:20:17;100145.81;;;10.60;72.16
64362;BME280;50685;53.346;-6.296;2023-04-10T10:22:45;100191.16;;;10.87;73.63
64362;BME280;50685;53.346;-6.296;2023-04-10T10:25:11;100157.72;;;10.43;74.48
64362;BME280;50685;53.346;-6.296;2023-04-10T10:27:38;100143.81;;;10.31;76.46
64362;BME280;50685;53.346;-6.296;2023-04-10T10:30:08;100133.06;;;10.38;76.76
64362;BME280;50685;53.346;-6.296;2023-04-10T10:32:36;100150.59;;;10.83;76.97
64362;BME280;50685;53.346;-6.296;2023-04-10T10:35:04;100131.56;;;11.02;75.50
64362;BME280;50685;53.346;-6.296;2023-04-10T10:37:33;100174.06;;;11.35;74.26
64362;BME280;50685;53.346;-6.296;2023-04-10T10:40:23;100157.13;;;11.39;73.09
64362;BME280;50685;53.346;-6.296;2023-04-10T10:46:06;100080.97;;;11.08;71.76
64362;BME280;50685;53.346;-6.296;2023-04-10T10:48:33;100129.16;;;11.25;71.77
64362;BME280;50685;53.346;-6.296;2023-04-10T10:51:00;100154.63;;;11.33;72.58
64362;BME280;50685;53.346;-6.296;2023-04-10T10:53:33;100120.19;;;10.97;71.90
64362;BME280;50685;53.346;-6.296;2023-04-10T10:58:49;100116.94;;;10.84;72.52
64362;BME280;50685;53.346;-6.296;2023-04-10T11:01:16;100127.31;;;10.95;72.46
64362;BME280;50685;53.346;-6.296;2023-04-10T11:03:45;100117.75;;;10.89;72.11
64362;BME280;50685;53.346;-6.296;2023-04-10T11:06:14;100119.44;;;10.91;71.07
64362;BME280;50685;53.346;-6.296;2023-04-10T11:08:43;100108.53;;;11.02;71.20
64362;BME280;50685;53.346;-6.296;2023-04-10T11:11:24;100128.19;;;11.28;70.86
64362;BME280;50685;53.346;-6.296;2023-04-10T11:16:20;100082.72;;;11.09;69.63
64362;BME280;50685;53.346;-6.296;2023-04-10T11:21:16;100115.31;;;11.14;68.44
64362;BME280;50685;53.346;-6.296;2023-04-10T11:26:38;100121.19;;;11.27;67.38
64362;BME280;50685;53.346;-6.296;2023-04-10T11:31:39;100074.59;;;11.15;67.95
64362;BME280;50685;53.346;-6.296;2023-04-10T11:34:08;100093.75;;;11.27;67.77
64362;BME280;50685;53.346;-6.296;2023-04-10T11:36:38;100092.31;;;11.13;67.66
64362;BME280;50685;53.346;-6.296;2023-04-10T11:39:06;100090.22;;;10.93;71.67
64362;BME280;50685;53.346;-6.296;2023-04-10T11:41:38;100149.53;;;10.90;71.89
64362;BME280;50685;53.346;-6.296;2023-04-10T11:44:10;100103.47;;;10.18;73.88
64362;BME280;50685;53.346;-6.296;2023-04-10T11:46:40;100095.34;;;9.83;74.45
64362;BME280;50685;53.346;-6.296;2023-04-10T11:49:08;100126.09;;;9.48;76.93
64362;BME280;50685;53.346;-6.296;2023-04-10T11:51:38;100154.66;;;9.29;78.33
64362;BME280;50685;53.346;-6.296;2023-04-10T11:54:07;100141.25;;;8.88;80.22
64362;BME280;50685;53.346;-6.296;2023-04-10T11:56:41;100192.25;;;8.96;80.99
64362;BME280;50685;53.346;-6.296;2023-04-10T11:59:13;100148.09;;;8.42;82.65
64362;BME280;50685;53.346;-6.296;2023-04-10T12:01:44;100152.66;;;8.29;83.31
64362;BME280;50685;53.346;-6.296;2023-04-10T12:04:20;100166.81;;;8.25;83.13
64362;BME280;50685;53.346;-6.296;2023-04-10T12:06:50;100154.59;;;8.18;82.52
64362;BME280;50685;53.346;-6.296;2023-04-10T12:09:19;100162.41;;;8.24;81.49
64362;BME280;50685;53.346;-6.296;2023-04-10T12:12:02;100169.34;;;8.33;81.57
64362;BME280;50685;53.346;-6.296;2023-04-10T12:14:38;100175.47;;;8.36;79.92
64362;BME280;50685;53.346;-6.296;2023-04-10T12:17:10;100167.44;;;8.43;80.12
64362;BME280;50685;53.346;-6.296;2023-04-10T12:19:37;100168.22;;;8.52;79.46
64362;BME280;50685;53.346;-6.296;2023-04-10T12:22:03;100171.41;;;8.75;80.10
64362;BME280;50685;53.346;-6.296;2023-04-10T12:24:48;100197.31;;;9.12;78.90
64362;BME280;50685;53.346;-6.296;2023-04-10T12:27:26;100152.56;;;8.96;78.27
64362;BME280;50685;53.346;-6.296;2023-04-10T12:29:54;100174.16;;;9.22;78.65
64362;BME280;50685;53.346;-6.296;2023-04-10T12:32:20;100161.63;;;9.35;78.47
64362;BME280;50685;53.346;-6.296;2023-04-10T12:34:53;100209.22;;;9.85;78.48
64362;BME280;50685;53.346;-6.296;2023-04-10T12:37:22;100213.50;;;9.92;77.49
64362;BME280;50685;53.346;-6.296;2023-04-10T12:39:48;100161.19;;;9.58;76.81
64362;BME280;50685;53.346;-6.296;2023-04-10T12:42:21;100166.59;;;9.52;77.80
64362;BME280;50685;53.346;-6.296;2023-04-10T12:44:57;100165.09;;;9.84;77.41
64362;BME280;50685;53.346;-6.296;2023-04-10T12:47:27;100129.69;;;9.88;75.16
64362;BME280;50685;53.346;-6.296;2023-04-10T12:50:06;100201.69;;;10.52;74.02
64362;BME280;50685;53.346;-6.296;2023-04-10T12:52:36;100153.72;;;10.61;74.02
64362;BME280;50685;53.346;-6.296;2023-04-10T12:55:14;100171.41;;;11.35;70.63
64362;BME280;50685;53.346;-6.296;2023-04-10T12:57:45;100145.03;;;11.62;69.12
64362;BME280;50685;53.346;-6.296;2023-04-10T13:00:16;100143.09;;;12.00;67.22
64362;BME280;50685;53.346;-6.296;2023-04-10T13:02:42;100159.94;;;12.29;65.19
64362;BME280;50685;53.346;-6.296;2023-04-10T13:05:13;100122.63;;;12.60;63.79
64362;BME280;50685;53.346;-6.296;2023-04-10T13:07:42;100140.25;;;12.91;63.45
64362;BME280;50685;53.346;-6.296;2023-04-10T13:10:08;100142.78;;;13.23;60.61
64362;BME280;50685;53.346;-6.296;2023-04-10T13:12:34;100151.69;;;13.48;60.67
64362;BME280;50685;53.346;-6.296;2023-04-10T13:15:03;100144.84;;;13.65;59.26
64362;BME280;50685;53.346;-6.296;2023-04-10T13:17:32;100122.56;;;13.68;58.12
64362;BME280;50685;53.346;-6.296;2023-04-10T13:20:29;100157.28;;;14.37;58.52
64362;BME280;50685;53.346;-6.296;2023-04-10T13:23:00;100141.88;;;14.45;55.02